createdAt,value
2022-12-29T00:01:39.961Z,11.47
2022-12-29T00:04:11.374Z,11.48
2022-12-29T00:06:41.024Z,11.53
2022-12-29T00:09:07.977Z,11.60
2022-12-29T00:11:34.611Z,11.60
2022-12-29T00:14:26.043Z,11.63
2022-12-29T00:16:52.843Z,11.62
2022-12-29T00:19:38.239Z,11.61
2022-12-29T00:22:23.717Z,11.54
2022-12-29T00:25:02.493Z,11.49
2022-12-29T00:27:48.972Z,11.44
2022-12-29T00:30:39.874Z,11.40
2022-12-29T00:33:36.692Z,11.32
2022-12-29T00:36:08.058Z,11.33
2022-12-29T00:38:57.492Z,11.29
2022-12-29T00:41:42.810Z,11.25
2022-12-29T00:44:11.257Z,11.23
2022-12-29T00:46:40.055Z,11.19
2022-12-29T00:49:26.483Z,11.19
2022-12-29T00:51:54.523Z,11.25
2022-12-29T00:54:21.411Z,11.28
2022-12-29T00:56:49.449Z,11.21
2022-12-29T00:59:16.018Z,11.27
2022-12-29T01:01:43.885Z,11.29
2022-12-29T01:04:11.047Z,11.34
2022-12-29T01:06:39.723Z,11.38
2022-12-29T01:09:26.601Z,11.36
2022-12-29T01:11:53.267Z,11.33
2022-12-29T01:14:20.318Z,11.28
2022-12-29T01:16:47.167Z,11.32
2022-12-29T01:19:14.784Z,11.30
2022-12-29T01:21:41.311Z,11.24
2022-12-29T01:24:07.831Z,11.30
2022-12-29T01:26:34.581Z,11.27
2022-12-29T01:29:01.119Z,11.24
2022-12-29T01:31:27.615Z,11.35
2022-12-29T01:33:54.097Z,11.43
2022-12-29T01:36:20.803Z,11.51
2022-12-29T01:38:47.352Z,11.49
2022-12-29T01:41:15.968Z,11.61
2022-12-29T01:43:42.347Z,11.68
2022-12-29T01:46:35.277Z,11.71
2022-12-29T01:49:25.129Z,11.77
2022-12-29T01:52:01.366Z,11.84
2022-12-29T01:54:50.499Z,11.89
2022-12-29T01:57:21.416Z,11.90
2022-12-29T01:59:57.001Z,11.99
2022-12-29T02:02:24.926Z,12.03
2022-12-29T02:04:54.529Z,12.05
2022-12-29T02:07:25.773Z,12.16
2022-12-29T02:09:54.090Z,12.17
2022-12-29T02:12:22.456Z,12.17
2022-12-29T02:14:54.360Z,12.20
2022-12-29T02:17:29.717Z,12.22
2022-12-29T02:20:06.361Z,12.23
2022-12-29T02:22:42.031Z,12.25
2022-12-29T02:25:20.460Z,12.32
2022-12-29T02:27:52.191Z,12.39
2022-12-29T02:30:30.512Z,12.47
2022-12-29T02:33:31.061Z,12.50
2022-12-29T02:36:08.912Z,12.51
2022-12-29T02:38:56.467Z,12.51
2022-12-29T02:41:52.149Z,12.51
2022-12-29T02:44:43.201Z,12.61
2022-12-29T02:47:24.944Z,12.61
2022-12-29T02:50:01.251Z,12.62
2022-12-29T02:52:34.968Z,12.76
2022-12-29T02:55:01.423Z,12.71
2022-12-29T02:57:27.829Z,12.68
2022-12-29T03:00:08.832Z,12.80
2022-12-29T03:02:59.792Z,12.80
2022-12-29T03:05:35.205Z,12.84
2022-12-29T03:08:15.275Z,12.86
2022-12-29T03:10:51.441Z,12.91
2022-12-29T03:13:48.482Z,12.92
2022-12-29T03:16:46.824Z,12.92
2022-12-29T03:19:24.325Z,12.79
2022-12-29T03:22:28.260Z,12.74
2022-12-29T03:25:04.007Z,12.79
2022-12-29T03:27:35.205Z,12.71
2022-12-29T03:30:05.647Z,12.79
2022-12-29T03:32:39.659Z,12.79
2022-12-29T03:35:08.461Z,12.79
2022-12-29T03:37:43.826Z,12.80
2022-12-29T03:40:10.720Z,12.85
2022-12-29T03:42:38.250Z,12.83
2022-12-29T03:45:07.377Z,12.82
2022-12-29T03:47:34.245Z,12.89
2022-12-29T03:50:00.716Z,12.90
2022-12-29T03:52:27.161Z,12.94
2022-12-29T03:54:53.614Z,12.92
2022-12-29T03:57:20.233Z,13.03
2022-12-29T03:59:46.703Z,12.96
2022-12-29T04:02:13.264Z,12.93
2022-12-29T04:04:41.057Z,12.88
2022-12-29T04:07:07.536Z,12.75
2022-12-29T04:09:34.023Z,12.74
2022-12-29T04:12:01.075Z,12.77
2022-12-29T04:14:27.569Z,12.72
2022-12-29T04:16:54.116Z,12.72
2022-12-29T04:19:20.649Z,12.80
2022-12-29T04:21:47.113Z,12.88
2022-12-29T04:24:13.993Z,12.95
2022-12-29T04:26:40.477Z,12.92
2022-12-29T04:29:06.948Z,12.93
2022-12-29T04:31:33.401Z,12.93
2022-12-29T04:34:01.099Z,12.96
2022-12-29T04:36:30.133Z,12.89
2022-12-29T04:38:57.144Z,12.93
2022-12-29T04:41:23.652Z,12.83
2022-12-29T04:43:50.246Z,12.91
2022-12-29T04:46:16.947Z,12.89
2022-12-29T04:48:44.808Z,12.89
2022-12-29T04:51:11.354Z,12.97
2022-12-29T04:53:37.819Z,13.07
2022-12-29T04:56:04.459Z,13.01
2022-12-29T04:58:30.917Z,13.22
2022-12-29T05:00:57.403Z,13.21
2022-12-29T05:03:24.066Z,13.37
2022-12-29T05:05:50.559Z,13.36
2022-12-29T05:08:17.100Z,13.41
2022-12-29T05:10:46.564Z,13.43
2022-12-29T05:13:13.393Z,13.42
2022-12-29T05:15:41.055Z,13.51
2022-12-29T05:18:07.543Z,13.52
2022-12-29T05:20:34.100Z,13.45
2022-12-29T05:23:00.643Z,13.49
2022-12-29T05:25:27.092Z,13.43
2022-12-29T05:27:53.547Z,13.45
2022-12-29T05:30:20.217Z,13.45
2022-12-29T05:32:46.680Z,13.55
2022-12-29T05:35:13.827Z,13.52
2022-12-29T05:37:41.166Z,13.47
2022-12-29T05:40:08.518Z,13.49
2022-12-29T05:42:35.126Z,13.16
2022-12-29T05:45:01.609Z,12.74
2022-12-29T05:47:28.178Z,12.67
2022-12-29T05:49:54.707Z,12.46
2022-12-29T05:52:21.181Z,12.40
2022-12-29T05:54:47.681Z,12.39
2022-12-29T05:57:14.117Z,12.57
2022-12-29T05:59:40.598Z,12.74
2022-12-29T06:02:07.246Z,12.86
2022-12-29T06:04:33.806Z,12.93
2022-12-29T06:07:00.477Z,12.98
2022-12-29T06:09:27.034Z,13.02
2022-12-29T06:11:53.716Z,13.06
2022-12-29T06:14:20.260Z,13.00
2022-12-29T06:16:46.744Z,13.02
2022-12-29T06:19:13.285Z,12.99
2022-12-29T06:21:39.733Z,12.99
2022-12-29T06:24:06.598Z,13.02
2022-12-29T06:26:33.074Z,12.90
2022-12-29T06:28:59.565Z,12.79
2022-12-29T06:31:26.067Z,12.87
2022-12-29T06:33:52.565Z,12.88
2022-12-29T06:36:19.070Z,12.87
2022-12-29T06:38:45.623Z,12.76
2022-12-29T06:41:12.169Z,12.77
2022-12-29T06:43:39.290Z,12.79
2022-12-29T06:46:06.564Z,12.89
2022-12-29T06:48:33.263Z,12.81
2022-12-29T06:50:59.740Z,12.72
2022-12-29T06:53:26.276Z,12.71
2022-12-29T06:55:52.723Z,12.77
2022-12-29T06:58:19.332Z,12.68
2022-12-29T07:00:45.903Z,12.71
2022-12-29T07:03:12.547Z,12.65
2022-12-29T07:05:39.064Z,12.74
2022-12-29T07:08:05.903Z,12.75
2022-12-29T07:10:32.700Z,12.71
2022-12-29T07:12:59.261Z,12.72
2022-12-29T07:15:25.767Z,12.70
2022-12-29T07:17:52.657Z,12.70
2022-12-29T07:20:23.336Z,12.78
2022-12-29T07:22:52.898Z,12.81
2022-12-29T07:25:19.415Z,12.80
2022-12-29T07:27:45.959Z,12.82
2022-12-29T07:30:12.928Z,12.80
2022-12-29T07:32:39.436Z,12.78
2022-12-29T07:35:06.301Z,12.68
2022-12-29T07:37:32.844Z,12.67
2022-12-29T07:39:59.327Z,12.69
2022-12-29T07:42:25.841Z,12.72
2022-12-29T07:44:52.313Z,12.75
2022-12-29T07:47:19.936Z,12.90
2022-12-29T07:49:46.422Z,12.80
2022-12-29T07:52:12.967Z,12.78
2022-12-29T07:54:39.485Z,12.68
2022-12-29T07:57:06.802Z,12.88
2022-12-29T07:59:33.467Z,12.73
2022-12-29T08:02:00.045Z,12.85
2022-12-29T08:04:26.761Z,12.80
2022-12-29T08:06:53.302Z,12.79
2022-12-29T08:09:24.044Z,12.80
2022-12-29T08:11:51.191Z,12.70
2022-12-29T08:14:17.757Z,12.85
2022-12-29T08:16:44.242Z,12.75
2022-12-29T08:19:14.003Z,12.73
2022-12-29T08:21:40.985Z,12.71
2022-12-29T08:24:09.403Z,12.67
2022-12-29T08:26:35.888Z,12.70
2022-12-29T08:29:02.349Z,12.76
2022-12-29T08:31:28.897Z,12.69
2022-12-29T08:33:55.419Z,12.75
2022-12-29T08:36:22.057Z,12.70
2022-12-29T08:38:48.526Z,12.70
2022-12-29T08:41:14.999Z,12.66
2022-12-29T08:43:41.473Z,12.73
2022-12-29T08:46:08.093Z,12.65
2022-12-29T08:48:34.627Z,12.67
2022-12-29T08:51:01.216Z,12.48
2022-12-29T08:53:27.903Z,12.55
2022-12-29T08:56:04.702Z,12.52
2022-12-29T08:58:31.856Z,12.53
2022-12-29T09:00:59.219Z,12.40
2022-12-29T09:03:55.092Z,12.47
2022-12-29T09:06:13.285Z,12.43
2022-12-29T09:08:39.766Z,12.47
2022-12-29T09:11:10.767Z,12.44
2022-12-29T09:13:37.492Z,12.52
2022-12-29T09:16:04.734Z,12.59
2022-12-29T09:18:32.116Z,12.54
2022-12-29T09:21:04.130Z,12.67
2022-12-29T09:23:31.555Z,12.60
2022-12-29T09:25:58.142Z,12.65
2022-12-29T09:28:24.647Z,12.83
2022-12-29T09:30:51.914Z,12.82
2022-12-29T09:33:18.764Z,12.77
2022-12-29T09:35:50.755Z,12.74
2022-12-29T09:38:17.957Z,12.65
2022-12-29T09:40:50.377Z,12.70
2022-12-29T09:43:45.220Z,12.68
2022-12-29T09:46:33.174Z,12.71
2022-12-29T09:49:28.903Z,12.60
2022-12-29T09:52:01.525Z,12.50
2022-12-29T09:54:39.877Z,12.54
2022-12-29T09:57:16.005Z,12.50
2022-12-29T09:59:46.100Z,12.62
2022-12-29T10:02:28.402Z,12.56
2022-12-29T10:04:55.021Z,12.60
2022-12-29T10:07:40.802Z,12.49
2022-12-29T10:10:13.671Z,12.63
2022-12-29T10:13:12.401Z,12.48
2022-12-29T10:15:56.360Z,12.61
2022-12-29T10:18:44.671Z,12.68
2022-12-29T10:21:23.438Z,12.54
2022-12-29T10:23:53.433Z,12.62
2022-12-29T10:26:28.035Z,12.64
2022-12-29T10:29:03.526Z,12.71
2022-12-29T10:31:39.622Z,12.77
2022-12-29T10:34:21.774Z,12.66
2022-12-29T10:36:51.835Z,12.83
2022-12-29T10:39:27.783Z,12.67
2022-12-29T10:42:13.150Z,12.65
2022-12-29T10:44:39.741Z,12.72
2022-12-29T10:47:15.914Z,12.62
2022-12-29T10:49:46.159Z,12.82
2022-12-29T10:52:15.047Z,12.67
2022-12-29T10:55:12.981Z,12.59
2022-12-29T10:57:45.087Z,12.61
2022-12-29T11:00:21.653Z,12.67
2022-12-29T11:03:05.190Z,12.58
2022-12-29T11:06:27.707Z,12.63
2022-12-29T11:09:01.121Z,12.67
2022-12-29T11:11:34.747Z,12.76
2022-12-29T11:14:10.153Z,12.71
2022-12-29T11:16:37.121Z,12.56
2022-12-29T11:19:03.847Z,12.71
2022-12-29T11:21:43.573Z,12.65
2022-12-29T11:24:27.731Z,12.57
2022-12-29T11:26:59.606Z,12.56
2022-12-29T11:29:30.118Z,12.59
2022-12-29T11:32:00.110Z,12.57
2022-12-29T11:34:32.463Z,12.65
2022-12-29T11:37:02.948Z,12.58
2022-12-29T11:39:58.484Z,12.66
2022-12-29T11:42:33.310Z,12.60
2022-12-29T11:45:10.832Z,12.60
2022-12-29T11:47:37.793Z,12.53
2022-12-29T11:50:07.796Z,12.63
2022-12-29T11:52:40.299Z,12.76
2022-12-29T11:55:18.707Z,12.66
2022-12-29T11:57:46.167Z,12.62
2022-12-29T12:00:20.189Z,12.74
2022-12-29T12:03:02.892Z,12.60
2022-12-29T12:05:42.919Z,12.66
2022-12-29T12:08:09.381Z,12.72
2022-12-29T12:10:59.815Z,12.66
2022-12-29T12:13:53.514Z,12.68
2022-12-29T12:16:23.682Z,12.67
2022-12-29T12:18:53.143Z,12.74
2022-12-29T12:21:26.201Z,12.62
2022-12-29T12:24:24.231Z,12.80
2022-12-29T12:26:56.894Z,12.66
2022-12-29T12:29:36.681Z,12.72
2022-12-29T12:32:07.480Z,12.71
2022-12-29T12:34:40.494Z,12.50
2022-12-29T12:37:24.933Z,12.66
2022-12-29T12:40:29.730Z,12.57
2022-12-29T12:43:38.061Z,12.54
2022-12-29T12:46:29.621Z,12.63
2022-12-29T12:49:06.419Z,12.56
2022-12-29T12:52:04.604Z,12.59
2022-12-29T12:54:45.887Z,12.64
2022-12-29T12:57:18.361Z,12.52
2022-12-29T12:59:50.830Z,12.41
2022-12-29T13:02:41.240Z,12.47
2022-12-29T13:05:24.451Z,12.62
2022-12-29T13:08:24.811Z,12.55
2022-12-29T13:11:10.252Z,12.52
2022-12-29T13:14:01.777Z,12.56
2022-12-29T13:16:50.160Z,12.53
2022-12-29T13:19:25.655Z,12.59
2022-12-29T13:22:14.611Z,12.58
2022-12-29T13:25:13.375Z,12.60
2022-12-29T13:27:51.623Z,12.62
2022-12-29T13:30:21.418Z,12.47
2022-12-29T13:33:22.126Z,12.64
2022-12-29T13:35:57.499Z,12.55
2022-12-29T13:38:27.953Z,12.58
2022-12-29T13:41:00.509Z,12.42
2022-12-29T13:43:30.756Z,12.57
2022-12-29T13:46:05.930Z,12.59
2022-12-29T13:48:40.177Z,12.46
2022-12-29T13:51:10.687Z,12.45
2022-12-29T13:53:52.542Z,12.44
2022-12-29T13:56:25.376Z,12.37
2022-12-29T13:58:58.302Z,12.45
2022-12-29T14:01:33.121Z,12.46
2022-12-29T14:04:03.805Z,12.46
2022-12-29T14:06:31.743Z,12.39
2022-12-29T14:09:06.911Z,12.40
2022-12-29T14:11:38.899Z,12.51
2022-12-29T14:14:26.153Z,12.43
2022-12-29T14:16:53.855Z,12.53
2022-12-29T14:19:42.854Z,12.38
2022-12-29T14:22:11.045Z,12.31
2022-12-29T14:24:44.316Z,12.29
2022-12-29T14:27:10.761Z,12.31
2022-12-29T14:29:40.340Z,12.26
2022-12-29T14:32:22.259Z,12.19
2022-12-29T14:34:52.410Z,12.13
2022-12-29T14:37:33.095Z,12.04
2022-12-29T14:40:14.203Z,11.98
2022-12-29T14:42:42.365Z,11.92
2022-12-29T14:45:27.305Z,11.92
2022-12-29T14:47:54.871Z,11.91
2022-12-29T14:50:26.882Z,11.93
2022-12-29T14:53:02.437Z,11.88
2022-12-29T14:55:42.097Z,11.91
2022-12-29T14:58:15.545Z,11.88
2022-12-29T15:00:43.265Z,11.90
2022-12-29T15:03:26.214Z,11.87
2022-12-29T15:05:56.626Z,11.93
2022-12-29T15:08:31.202Z,11.90
2022-12-29T15:11:05.836Z,11.93
2022-12-29T15:13:38.409Z,11.98
2022-12-29T15:16:06.119Z,11.95
2022-12-29T15:18:34.404Z,11.87
2022-12-29T15:21:03.379Z,11.96
2022-12-29T15:23:32.344Z,11.90
2022-12-29T15:26:05.061Z,11.98
2022-12-29T15:28:43.761Z,11.95
2022-12-29T15:31:27.817Z,11.94
2022-12-29T15:34:10.931Z,11.89
2022-12-29T15:36:40.649Z,11.97
2022-12-29T15:39:29.931Z,11.87
2022-12-29T15:42:19.472Z,11.87
2022-12-29T15:44:47.117Z,11.85
2022-12-29T15:47:18.826Z,12.00
2022-12-29T15:49:48.784Z,11.86
2022-12-29T15:52:22.697Z,11.82
2022-12-29T15:54:51.551Z,11.88
2022-12-29T15:57:44.261Z,11.88
2022-12-29T16:00:26.823Z,11.80
2022-12-29T16:02:56.507Z,11.80
2022-12-29T16:05:23.190Z,11.65
2022-12-29T16:07:56.114Z,11.70
2022-12-29T16:10:43.415Z,11.76
2022-12-29T16:13:29.682Z,11.75
2022-12-29T16:16:04.136Z,11.77
2022-12-29T16:18:36.257Z,11.76
2022-12-29T16:21:06.157Z,11.77
2022-12-29T16:23:33.836Z,11.78
2022-12-29T16:26:00.829Z,11.83
2022-12-29T16:28:43.161Z,11.80
2022-12-29T16:31:23.167Z,11.79
2022-12-29T16:33:54.121Z,11.82
2022-12-29T16:36:30.230Z,11.78
2022-12-29T16:39:16.460Z,11.70
2022-12-29T16:41:42.964Z,11.73
2022-12-29T16:44:16.871Z,11.70
2022-12-29T16:47:06.346Z,11.68
2022-12-29T16:49:34.897Z,11.69
2022-12-29T16:52:02.203Z,11.61
2022-12-29T16:54:36.321Z,11.45
2022-12-29T16:57:03.556Z,11.18
2022-12-29T16:59:36.515Z,11.09
2022-12-29T17:02:09.193Z,11.06
2022-12-29T17:04:35.708Z,11.02
2022-12-29T17:07:02.237Z,11.07
2022-12-29T17:09:30.438Z,10.98
2022-12-29T17:12:05.253Z,10.95
2022-12-29T17:14:36.899Z,10.85
2022-12-29T17:17:05.911Z,9.96
2022-12-29T17:19:35.581Z,8.87
2022-12-29T17:22:03.520Z,8.83
2022-12-29T17:24:30.354Z,8.65
2022-12-29T17:27:00.024Z,8.54
2022-12-29T17:29:41.197Z,8.46
2022-12-29T17:32:12.944Z,8.54
2022-12-29T17:34:40.742Z,8.44
2022-12-29T17:37:29.922Z,8.36
2022-12-29T17:39:56.492Z,8.37
2022-12-29T17:42:23.203Z,8.36
2022-12-29T17:44:49.762Z,8.34
2022-12-29T17:47:16.401Z,8.34
2022-12-29T17:49:46.403Z,8.37
2022-12-29T17:52:17.504Z,8.33
2022-12-29T17:54:53.531Z,8.37
2022-12-29T17:57:21.193Z,8.31
2022-12-29T17:59:47.763Z,8.35
2022-12-29T18:02:30.604Z,8.39
2022-12-29T18:04:58.759Z,8.33
2022-12-29T18:07:33.913Z,8.29
2022-12-29T18:10:02.312Z,8.36
2022-12-29T18:12:31.875Z,8.32
2022-12-29T18:14:58.596Z,8.33
2022-12-29T18:17:25.584Z,8.28
2022-12-29T18:19:54.735Z,8.26
2022-12-29T18:22:25.806Z,8.20
2022-12-29T18:24:52.319Z,8.28
2022-12-29T18:27:19.612Z,8.22
2022-12-29T18:29:46.965Z,8.21
2022-12-29T18:32:14.679Z,8.21
2022-12-29T18:34:42.373Z,8.21
2022-12-29T18:37:10.070Z,8.25
2022-12-29T18:39:37.203Z,8.24
2022-12-29T18:42:05.462Z,8.28
2022-12-29T18:44:32.120Z,8.23
2022-12-29T18:46:58.737Z,8.25
2022-12-29T18:49:25.536Z,8.24
2022-12-29T18:51:52.098Z,8.24
2022-12-29T18:54:36.688Z,8.24
2022-12-29T18:57:03.167Z,8.27
2022-12-29T18:59:29.621Z,8.30
2022-12-29T19:01:56.355Z,8.33
2022-12-29T19:04:23.053Z,8.43
2022-12-29T19:06:49.807Z,8.52
2022-12-29T19:09:16.309Z,8.48
2022-12-29T19:11:43.080Z,8.57
2022-12-29T19:14:16.394Z,8.60
2022-12-29T19:16:43.009Z,8.55
2022-12-29T19:19:15.136Z,8.52
2022-12-29T19:21:41.678Z,8.52
2022-12-29T19:24:08.247Z,8.51
2022-12-29T19:26:37.555Z,8.68
2022-12-29T19:29:05.526Z,8.65
2022-12-29T19:31:32.182Z,8.64
2022-12-29T19:33:58.804Z,8.72
2022-12-29T19:36:25.282Z,8.65
2022-12-29T19:38:51.814Z,8.70
2022-12-29T19:41:18.305Z,8.72
2022-12-29T19:43:44.833Z,8.66
2022-12-29T19:46:15.609Z,8.62
2022-12-29T19:48:42.383Z,8.64
2022-12-29T19:51:11.626Z,8.70
2022-12-29T19:53:38.501Z,8.67
2022-12-29T19:56:07.781Z,8.74
2022-12-29T19:58:35.478Z,8.70
2022-12-29T20:01:18.429Z,8.71
2022-12-29T20:03:45.431Z,8.66
2022-12-29T20:06:12.669Z,8.70
2022-12-29T20:08:39.879Z,8.64
2022-12-29T20:11:17.871Z,8.62
2022-12-29T20:13:45.574Z,8.63
2022-12-29T20:16:18.262Z,8.76
2022-12-29T20:18:45.918Z,8.69
2022-12-29T20:21:15.904Z,8.68
2022-12-29T20:23:44.788Z,8.67
2022-12-29T20:26:18.895Z,8.71
2022-12-29T20:28:46.405Z,8.74
2022-12-29T20:31:24.038Z,8.84
2022-12-29T20:33:50.833Z,8.77
2022-12-29T20:36:20.342Z,8.79
2022-12-29T20:38:48.459Z,8.78
2022-12-29T20:41:15.358Z,8.75
2022-12-29T20:43:42.493Z,8.81
2022-12-29T20:46:09.751Z,8.75
2022-12-29T20:48:36.637Z,8.82
2022-12-29T20:51:03.536Z,8.80
2022-12-29T20:53:33.376Z,8.78
2022-12-29T20:56:03.589Z,8.71
2022-12-29T20:58:31.025Z,8.78
2022-12-29T21:01:01.615Z,8.77
2022-12-29T21:03:28.357Z,8.93
2022-12-29T21:05:55.388Z,8.87
2022-12-29T21:08:24.889Z,8.86
2022-12-29T21:10:51.659Z,8.82
2022-12-29T21:13:18.136Z,8.83
2022-12-29T21:15:45.474Z,8.84
2022-12-29T21:18:13.580Z,8.83
2022-12-29T21:20:41.041Z,8.82
2022-12-29T21:23:08.071Z,8.85
2022-12-29T21:25:37.348Z,8.81
2022-12-29T21:28:05.304Z,8.79
2022-12-29T21:30:32.350Z,8.82
2022-12-29T21:32:59.649Z,8.70
2022-12-29T21:35:26.631Z,8.83
2022-12-29T21:37:53.694Z,8.68
2022-12-29T21:40:22.547Z,8.79
2022-12-29T21:42:49.536Z,8.75
2022-12-29T21:45:24.976Z,8.65
2022-12-29T21:48:15.858Z,8.62
2022-12-29T21:51:03.178Z,8.60
2022-12-29T21:53:40.073Z,8.53
2022-12-29T21:56:17.328Z,8.57
2022-12-29T21:59:07.265Z,8.63
2022-12-29T22:01:56.516Z,8.63
2022-12-29T22:04:44.599Z,8.60
2022-12-29T22:07:31.147Z,8.50
2022-12-29T22:10:16.481Z,8.58
2022-12-29T22:12:57.984Z,8.54
2022-12-29T22:15:24.864Z,8.56
2022-12-29T22:17:53.628Z,8.46
2022-12-29T22:20:22.277Z,8.46
2022-12-29T22:22:49.027Z,8.51
2022-12-29T22:25:16.083Z,8.51
2022-12-29T22:27:43.023Z,8.53
2022-12-29T22:30:10.279Z,8.54
2022-12-29T22:32:36.789Z,8.58
2022-12-29T22:35:08.132Z,8.49
2022-12-29T22:37:35.959Z,8.52
2022-12-29T22:40:02.488Z,8.53
2022-12-29T22:42:28.985Z,8.58
2022-12-29T22:44:55.456Z,8.54
2022-12-29T22:47:21.932Z,8.51
2022-12-29T22:49:48.408Z,8.58
2022-12-29T22:52:14.859Z,8.48
2022-12-29T22:54:41.354Z,8.54
2022-12-29T22:57:07.803Z,8.46
2022-12-29T22:59:34.674Z,8.51
2022-12-29T23:02:01.806Z,8.51
2022-12-29T23:05:02.259Z,8.43
2022-12-29T23:07:15.127Z,8.43
2022-12-29T23:09:41.596Z,8.44
2022-12-29T23:12:08.069Z,8.38
2022-12-29T23:14:34.616Z,8.48
2022-12-29T23:17:01.091Z,8.41
2022-12-29T23:19:27.556Z,8.42
2022-12-29T23:21:54.031Z,8.42
2022-12-29T23:24:20.508Z,8.39
2022-12-29T23:26:47.956Z,8.43
2022-12-29T23:29:17.151Z,8.40
2022-12-29T23:31:44.517Z,8.33
2022-12-29T23:34:12.558Z,8.35
2022-12-29T23:36:39.599Z,8.38
2022-12-29T23:39:08.788Z,8.40
2022-12-29T23:41:35.599Z,8.41
2022-12-29T23:44:02.315Z,8.35
2022-12-29T23:46:29.578Z,8.35
2022-12-29T23:48:56.323Z,8.35
2022-12-29T23:51:22.797Z,8.44
2022-12-29T23:53:49.481Z,8.44
2022-12-29T23:56:19.474Z,8.41
2022-12-29T23:58:46.332Z,8.34
